sensor_id;sensor_type;location;lat;lon;timestamp;temperature;humidity
16038;DHT22;8123;50.906;6.172;2022-07-24T00:02:02;18.80;99.90
16038;DHT22;8123;50.906;6.172;2022-07-24T00:04:28;18.80;99.90
16038;DHT22;8123;50.906;6.172;2022-07-24T00:06:53;18.80;99.90
16038;DHT22;8123;50.906;6.172;2022-07-24T00:09:19;18.70;99.90
16038;DHT22;8123;50.906;6.172;2022-07-24T00:11:44;18.70;99.90
16038;DHT22;8123;50.906;6.172;2022-07-24T00:14:10;18.60;99.90
16038;DHT22;8123;50.906;6.172;2022-07-24T00:16:36;18.60;99.90
16038;DHT22;8123;50.906;6.172;2022-07-24T00:19:02;18.50;99.90
16038;DHT22;8123;50.906;6.172;2022-07-24T00:21:27;18.40;99.90
16038;DHT22;8123;50.906;6.172;2022-07-24T00:23:53;18.40;99.90
16038;DHT22;8123;50.906;6.172;2022-07-24T00:26:19;18.30;99.90
16038;DHT22;8123;50.906;6.172;2022-07-24T00:28:44;18.30;99.90
16038;DHT22;8123;50.906;6.172;2022-07-24T00:31:10;18.20;99.90
16038;DHT22;8123;50.906;6.172;2022-07-24T00:33:36;18.20;99.90
16038;DHT22;8123;50.906;6.172;2022-07-24T00:36:02;18.20;99.90
16038;DHT22;8123;50.906;6.172;2022-07-24T00:38:28;18.20;99.90
16038;DHT22;8123;50.906;6.172;2022-07-24T00:40:53;18.20;99.90
16038;DHT22;8123;50.906;6.172;2022-07-24T00:43:19;18.10;99.90
16038;DHT22;8123;50.906;6.172;2022-07-24T00:45:45;18.10;99.90
16038;DHT22;8123;50.906;6.172;2022-07-24T00:48:11;18.10;99.90
16038;DHT22;8123;50.906;6.172;2022-07-24T00:50:37;18.10;99.90
16038;DHT22;8123;50.906;6.172;2022-07-24T00:53:03;18.10;99.90
16038;DHT22;8123;50.906;6.172;2022-07-24T00:55:29;18.00;99.90
16038;DHT22;8123;50.906;6.172;2022-07-24T00:57:55;18.10;99.90
16038;DHT22;8123;50.906;6.172;2022-07-24T01:00:22;18.00;99.90
16038;DHT22;8123;50.906;6.172;2022-07-24T01:02:49;18.10;99.90
16038;DHT22;8123;50.906;6.172;2022-07-24T01:05:15;18.10;99.90
16038;DHT22;8123;50.906;6.172;2022-07-24T01:07:41;18.00;99.90
16038;DHT22;8123;50.906;6.172;2022-07-24T01:10:07;18.10;99.90
16038;DHT22;8123;50.906;6.172;2022-07-24T01:12:37;18.00;99.90
16038;DHT22;8123;50.906;6.172;2022-07-24T01:15:05;18.10;99.90
16038;DHT22;8123;50.906;6.172;2022-07-24T01:17:33;18.10;99.90
16038;DHT22;8123;50.906;6.172;2022-07-24T01:20:00;18.10;99.90
16038;DHT22;8123;50.906;6.172;2022-07-24T01:22:27;18.10;99.90
16038;DHT22;8123;50.906;6.172;2022-07-24T01:24:53;18.10;99.90
16038;DHT22;8123;50.906;6.172;2022-07-24T01:27:21;18.10;99.90
16038;DHT22;8123;50.906;6.172;2022-07-24T01:29:47;18.10;99.90
16038;DHT22;8123;50.906;6.172;2022-07-24T01:32:13;18.00;99.90
16038;DHT22;8123;50.906;6.172;2022-07-24T01:34:38;18.10;99.90
16038;DHT22;8123;50.906;6.172;2022-07-24T01:37:04;18.10;99.90
16038;DHT22;8123;50.906;6.172;2022-07-24T01:39:29;18.10;99.90
16038;DHT22;8123;50.906;6.172;2022-07-24T01:41:55;18.10;99.90
16038;DHT22;8123;50.906;6.172;2022-07-24T01:44:21;18.20;99.90
16038;DHT22;8123;50.906;6.172;2022-07-24T01:46:47;18.30;99.90
16038;DHT22;8123;50.906;6.172;2022-07-24T01:49:13;18.30;99.90
16038;DHT22;8123;50.906;6.172;2022-07-24T01:51:39;18.30;99.90
16038;DHT22;8123;50.906;6.172;2022-07-24T01:54:05;18.30;99.90
16038;DHT22;8123;50.906;6.172;2022-07-24T01:56:31;18.30;99.90
16038;DHT22;8123;50.906;6.172;2022-07-24T01:58:57;18.30;99.90
16038;DHT22;8123;50.906;6.172;2022-07-24T02:01:24;18.20;99.90
16038;DHT22;8123;50.906;6.172;2022-07-24T02:03:49;18.20;99.90
16038;DHT22;8123;50.906;6.172;2022-07-24T02:06:15;18.20;99.90
16038;DHT22;8123;50.906;6.172;2022-07-24T02:08:42;18.10;99.90
16038;DHT22;8123;50.906;6.172;2022-07-24T02:11:07;18.20;99.90
16038;DHT22;8123;50.906;6.172;2022-07-24T02:13:34;18.20;99.90
16038;DHT22;8123;50.906;6.172;2022-07-24T02:15:59;18.20;99.90
16038;DHT22;8123;50.906;6.172;2022-07-24T02:18:25;18.20;99.90
16038;DHT22;8123;50.906;6.172;2022-07-24T02:20:51;18.20;99.90
16038;DHT22;8123;50.906;6.172;2022-07-24T02:23:16;18.20;99.90
16038;DHT22;8123;50.906;6.172;2022-07-24T02:25:47;18.20;99.90
16038;DHT22;8123;50.906;6.172;2022-07-24T02:28:14;18.10;99.90
16038;DHT22;8123;50.906;6.172;2022-07-24T02:30:40;18.10;99.90
16038;DHT22;8123;50.906;6.172;2022-07-24T02:33:06;18.00;99.90
16038;DHT22;8123;50.906;6.172;2022-07-24T02:35:32;18.00;99.90
16038;DHT22;8123;50.906;6.172;2022-07-24T02:37:58;18.00;99.90
16038;DHT22;8123;50.906;6.172;2022-07-24T02:40:23;18.00;99.90
16038;DHT22;8123;50.906;6.172;2022-07-24T02:42:49;17.90;99.90
16038;DHT22;8123;50.906;6.172;2022-07-24T02:45:15;17.90;99.90
16038;DHT22;8123;50.906;6.172;2022-07-24T02:47:52;17.90;99.90
16038;DHT22;8123;50.906;6.172;2022-07-24T02:50:20;17.90;99.90
16038;DHT22;8123;50.906;6.172;2022-07-24T02:52:46;17.90;99.90
16038;DHT22;8123;50.906;6.172;2022-07-24T02:55:12;18.00;99.90
16038;DHT22;8123;50.906;6.172;2022-07-24T02:57:38;18.00;99.90
16038;DHT22;8123;50.906;6.172;2022-07-24T03:00:06;18.00;99.90
16038;DHT22;8123;50.906;6.172;2022-07-24T03:02:33;18.10;99.90
16038;DHT22;8123;50.906;6.172;2022-07-24T03:04:59;18.10;99.90
16038;DHT22;8123;50.906;6.172;2022-07-24T03:07:24;18.10;99.90
16038;DHT22;8123;50.906;6.172;2022-07-24T03:09:50;18.10;99.90
16038;DHT22;8123;50.906;6.172;2022-07-24T03:12:15;18.00;99.90
16038;DHT22;8123;50.906;6.172;2022-07-24T03:14:41;18.00;99.90
16038;DHT22;8123;50.906;6.172;2022-07-24T03:17:07;18.10;99.90
16038;DHT22;8123;50.906;6.172;2022-07-24T03:19:32;18.00;99.90
16038;DHT22;8123;50.906;6.172;2022-07-24T03:21:58;18.00;99.90
16038;DHT22;8123;50.906;6.172;2022-07-24T03:24:23;18.00;99.90
16038;DHT22;8123;50.906;6.172;2022-07-24T03:26:49;18.10;99.90
16038;DHT22;8123;50.906;6.172;2022-07-24T03:29:15;18.00;99.90
16038;DHT22;8123;50.906;6.172;2022-07-24T03:31:41;18.00;99.90
16038;DHT22;8123;50.906;6.172;2022-07-24T03:34:06;17.90;99.90
16038;DHT22;8123;50.906;6.172;2022-07-24T03:36:32;17.90;99.90
16038;DHT22;8123;50.906;6.172;2022-07-24T03:38:58;17.90;99.90
16038;DHT22;8123;50.906;6.172;2022-07-24T03:41:23;17.90;99.90
16038;DHT22;8123;50.906;6.172;2022-07-24T03:43:49;17.90;99.90
16038;DHT22;8123;50.906;6.172;2022-07-24T03:46:15;17.80;99.90
16038;DHT22;8123;50.906;6.172;2022-07-24T03:48:40;17.80;99.90
16038;DHT22;8123;50.906;6.172;2022-07-24T03:51:06;17.80;99.90
16038;DHT22;8123;50.906;6.172;2022-07-24T03:53:32;17.80;99.90
16038;DHT22;8123;50.906;6.172;2022-07-24T03:55:57;17.80;99.90
16038;DHT22;8123;50.906;6.172;2022-07-24T03:58:23;17.80;99.90
16038;DHT22;8123;50.906;6.172;2022-07-24T04:00:49;17.80;99.90
16038;DHT22;8123;50.906;6.172;2022-07-24T04:03:14;17.80;99.90
16038;DHT22;8123;50.906;6.172;2022-07-24T04:05:40;17.80;99.90
16038;DHT22;8123;50.906;6.172;2022-07-24T04:08:05;17.90;99.90
16038;DHT22;8123;50.906;6.172;2022-07-24T04:10:31;17.90;99.90
16038;DHT22;8123;50.906;6.172;2022-07-24T04:12:57;17.90;99.90
16038;DHT22;8123;50.906;6.172;2022-07-24T04:15:22;17.80;99.90
16038;DHT22;8123;50.906;6.172;2022-07-24T04:17:48;17.80;99.90
16038;DHT22;8123;50.906;6.172;2022-07-24T04:20:14;17.80;99.90
16038;DHT22;8123;50.906;6.172;2022-07-24T04:22:39;17.80;99.90
16038;DHT22;8123;50.906;6.172;2022-07-24T04:25:06;17.80;99.90
16038;DHT22;8123;50.906;6.172;2022-07-24T04:27:32;17.80;99.90
16038;DHT22;8123;50.906;6.172;2022-07-24T04:29:58;17.70;99.90
16038;DHT22;8123;50.906;6.172;2022-07-24T04:32:24;17.70;99.90
16038;DHT22;8123;50.906;6.172;2022-07-24T04:34:51;17.80;99.90
16038;DHT22;8123;50.906;6.172;2022-07-24T04:37:16;17.80;99.90
16038;DHT22;8123;50.906;6.172;2022-07-24T04:39:42;17.80;99.90
16038;DHT22;8123;50.906;6.172;2022-07-24T04:42:07;17.80;99.90
16038;DHT22;8123;50.906;6.172;2022-07-24T04:44:33;18.00;99.90
16038;DHT22;8123;50.906;6.172;2022-07-24T04:46:59;18.00;99.90
16038;DHT22;8123;50.906;6.172;2022-07-24T04:49:24;18.10;99.90
16038;DHT22;8123;50.906;6.172;2022-07-24T04:51:50;18.10;99.90
16038;DHT22;8123;50.906;6.172;2022-07-24T04:54:15;18.30;99.90
16038;DHT22;8123;50.906;6.172;2022-07-24T04:56:41;18.40;99.90
16038;DHT22;8123;50.906;6.172;2022-07-24T04:59:07;18.50;99.90
16038;DHT22;8123;50.906;6.172;2022-07-24T05:01:49;18.60;99.90
16038;DHT22;8123;50.906;6.172;2022-07-24T05:04:14;18.50;99.90
16038;DHT22;8123;50.906;6.172;2022-07-24T05:06:40;18.50;99.90
16038;DHT22;8123;50.906;6.172;2022-07-24T05:09:06;18.50;99.90
16038;DHT22;8123;50.906;6.172;2022-07-24T05:11:31;18.50;99.90
16038;DHT22;8123;50.906;6.172;2022-07-24T05:13:57;18.50;99.90
16038;DHT22;8123;50.906;6.172;2022-07-24T05:16:23;18.60;99.90
16038;DHT22;8123;50.906;6.172;2022-07-24T05:18:48;18.60;99.90
16038;DHT22;8123;50.906;6.172;2022-07-24T05:21:14;18.60;99.90
16038;DHT22;8123;50.906;6.172;2022-07-24T05:23:40;18.60;99.90
16038;DHT22;8123;50.906;6.172;2022-07-24T05:26:06;18.70;99.90
16038;DHT22;8123;50.906;6.172;2022-07-24T05:28:32;18.70;99.90
16038;DHT22;8123;50.906;6.172;2022-07-24T05:30:58;18.70;99.90
16038;DHT22;8123;50.906;6.172;2022-07-24T05:33:23;18.80;99.90
16038;DHT22;8123;50.906;6.172;2022-07-24T05:35:49;18.80;99.90
16038;DHT22;8123;50.906;6.172;2022-07-24T05:38:15;18.80;99.90
16038;DHT22;8123;50.906;6.172;2022-07-24T05:40:41;18.70;99.90
16038;DHT22;8123;50.906;6.172;2022-07-24T05:43:06;18.80;99.90
16038;DHT22;8123;50.906;6.172;2022-07-24T05:45:32;18.80;99.90
16038;DHT22;8123;50.906;6.172;2022-07-24T05:47:58;18.90;99.90
16038;DHT22;8123;50.906;6.172;2022-07-24T05:50:23;18.90;99.90
16038;DHT22;8123;50.906;6.172;2022-07-24T05:52:49;19.00;99.90
16038;DHT22;8123;50.906;6.172;2022-07-24T05:55:15;19.00;99.90
16038;DHT22;8123;50.906;6.172;2022-07-24T05:57:40;19.10;99.90
16038;DHT22;8123;50.906;6.172;2022-07-24T06:00:07;19.30;99.90
16038;DHT22;8123;50.906;6.172;2022-07-24T06:02:33;19.30;99.90
16038;DHT22;8123;50.906;6.172;2022-07-24T06:04:58;19.50;99.90
16038;DHT22;8123;50.906;6.172;2022-07-24T06:07:24;19.50;99.90
16038;DHT22;8123;50.906;6.172;2022-07-24T06:09:50;19.60;99.90
16038;DHT22;8123;50.906;6.172;2022-07-24T06:12:17;19.70;99.90
16038;DHT22;8123;50.906;6.172;2022-07-24T06:14:43;19.80;99.90
16038;DHT22;8123;50.906;6.172;2022-07-24T06:17:08;19.80;99.90
16038;DHT22;8123;50.906;6.172;2022-07-24T06:19:34;19.90;99.90
16038;DHT22;8123;50.906;6.172;2022-07-24T06:22:00;20.00;99.90
16038;DHT22;8123;50.906;6.172;2022-07-24T06:24:25;20.10;99.90
16038;DHT22;8123;50.906;6.172;2022-07-24T06:26:51;20.10;99.90
16038;DHT22;8123;50.906;6.172;2022-07-24T06:29:17;20.20;99.90
16038;DHT22;8123;50.906;6.172;2022-07-24T06:31:42;20.30;99.90
16038;DHT22;8123;50.906;6.172;2022-07-24T06:34:08;20.40;99.90
16038;DHT22;8123;50.906;6.172;2022-07-24T06:36:34;20.40;99.90
16038;DHT22;8123;50.906;6.172;2022-07-24T06:38:59;20.40;99.90
16038;DHT22;8123;50.906;6.172;2022-07-24T06:41:25;20.50;99.90
16038;DHT22;8123;50.906;6.172;2022-07-24T06:43:51;20.60;99.90
16038;DHT22;8123;50.906;6.172;2022-07-24T06:46:16;20.60;99.90
16038;DHT22;8123;50.906;6.172;2022-07-24T06:48:42;20.70;99.90
16038;DHT22;8123;50.906;6.172;2022-07-24T06:51:08;20.80;99.90
16038;DHT22;8123;50.906;6.172;2022-07-24T06:53:33;20.80;99.90
16038;DHT22;8123;50.906;6.172;2022-07-24T06:56:00;20.90;99.90
16038;DHT22;8123;50.906;6.172;2022-07-24T06:58:25;21.00;99.90
16038;DHT22;8123;50.906;6.172;2022-07-24T07:00:51;21.00;99.90
16038;DHT22;8123;50.906;6.172;2022-07-24T07:03:17;21.20;99.90
16038;DHT22;8123;50.906;6.172;2022-07-24T07:05:44;21.30;99.90
16038;DHT22;8123;50.906;6.172;2022-07-24T07:08:09;21.40;99.90
16038;DHT22;8123;50.906;6.172;2022-07-24T07:10:35;21.50;99.90
16038;DHT22;8123;50.906;6.172;2022-07-24T07:13:01;21.60;99.90
16038;DHT22;8123;50.906;6.172;2022-07-24T07:15:26;21.70;99.90
16038;DHT22;8123;50.906;6.172;2022-07-24T07:17:52;21.80;99.90
16038;DHT22;8123;50.906;6.172;2022-07-24T07:20:18;21.90;99.90
16038;DHT22;8123;50.906;6.172;2022-07-24T07:22:44;22.00;99.90
16038;DHT22;8123;50.906;6.172;2022-07-24T07:25:10;22.10;99.90
16038;DHT22;8123;50.906;6.172;2022-07-24T07:27:37;22.10;99.90
16038;DHT22;8123;50.906;6.172;2022-07-24T07:30:05;22.20;99.90
16038;DHT22;8123;50.906;6.172;2022-07-24T07:32:31;22.20;99.90
16038;DHT22;8123;50.906;6.172;2022-07-24T07:34:56;22.30;99.90
16038;DHT22;8123;50.906;6.172;2022-07-24T07:37:22;22.40;99.90
16038;DHT22;8123;50.906;6.172;2022-07-24T07:39:48;22.40;99.90
16038;DHT22;8123;50.906;6.172;2022-07-24T07:42:13;22.50;99.90
16038;DHT22;8123;50.906;6.172;2022-07-24T07:44:39;22.60;99.90
16038;DHT22;8123;50.906;6.172;2022-07-24T07:47:05;22.70;99.90
16038;DHT22;8123;50.906;6.172;2022-07-24T07:49:30;22.90;99.90
16038;DHT22;8123;50.906;6.172;2022-07-24T07:51:56;22.90;99.90
16038;DHT22;8123;50.906;6.172;2022-07-24T07:54:22;22.90;99.90
16038;DHT22;8123;50.906;6.172;2022-07-24T07:56:47;22.90;99.90
16038;DHT22;8123;50.906;6.172;2022-07-24T07:59:13;23.00;99.90
16038;DHT22;8123;50.906;6.172;2022-07-24T08:01:39;23.00;99.90
16038;DHT22;8123;50.906;6.172;2022-07-24T08:04:04;23.00;99.90
16038;DHT22;8123;50.906;6.172;2022-07-24T08:06:30;23.10;99.90
16038;DHT22;8123;50.906;6.172;2022-07-24T08:08:56;23.20;99.90
16038;DHT22;8123;50.906;6.172;2022-07-24T08:11:21;23.20;99.90
16038;DHT22;8123;50.906;6.172;2022-07-24T08:13:47;23.30;99.90
16038;DHT22;8123;50.906;6.172;2022-07-24T08:16:13;23.40;99.90
16038;DHT22;8123;50.906;6.172;2022-07-24T08:18:38;23.50;99.90
16038;DHT22;8123;50.906;6.172;2022-07-24T08:21:05;23.40;99.90
16038;DHT22;8123;50.906;6.172;2022-07-24T08:23:31;23.50;99.90
16038;DHT22;8123;50.906;6.172;2022-07-24T08:25:56;23.50;99.90
16038;DHT22;8123;50.906;6.172;2022-07-24T08:28:22;23.50;99.90
16038;DHT22;8123;50.906;6.172;2022-07-24T08:30:49;23.60;99.90
16038;DHT22;8123;50.906;6.172;2022-07-24T08:33:14;23.70;99.90
16038;DHT22;8123;50.906;6.172;2022-07-24T08:35:40;23.80;99.90
16038;DHT22;8123;50.906;6.172;2022-07-24T08:38:06;23.90;99.90
16038;DHT22;8123;50.906;6.172;2022-07-24T08:40:34;23.80;99.90
16038;DHT22;8123;50.906;6.172;2022-07-24T08:43:01;23.90;99.90
16038;DHT22;8123;50.906;6.172;2022-07-24T08:45:27;23.90;99.90
16038;DHT22;8123;50.906;6.172;2022-07-24T08:47:55;23.90;99.90
16038;DHT22;8123;50.906;6.172;2022-07-24T08:50:22;23.90;99.90
16038;DHT22;8123;50.906;6.172;2022-07-24T08:52:48;23.90;99.90
16038;DHT22;8123;50.906;6.172;2022-07-24T08:55:14;24.00;99.90
16038;DHT22;8123;50.906;6.172;2022-07-24T08:57:40;24.10;99.90
16038;DHT22;8123;50.906;6.172;2022-07-24T09:00:06;24.10;99.90
16038;DHT22;8123;50.906;6.172;2022-07-24T09:02:32;24.10;99.90
16038;DHT22;8123;50.906;6.172;2022-07-24T09:05:00;24.10;99.90
16038;DHT22;8123;50.906;6.172;2022-07-24T09:07:28;24.30;99.90
16038;DHT22;8123;50.906;6.172;2022-07-24T09:10:08;24.30;99.90
16038;DHT22;8123;50.906;6.172;2022-07-24T09:12:40;24.30;99.90
16038;DHT22;8123;50.906;6.172;2022-07-24T09:15:15;24.40;99.90
16038;DHT22;8123;50.906;6.172;2022-07-24T09:17:53;24.50;99.90
16038;DHT22;8123;50.906;6.172;2022-07-24T09:20:20;24.50;99.90
16038;DHT22;8123;50.906;6.172;2022-07-24T09:22:46;24.50;99.90
16038;DHT22;8123;50.906;6.172;2022-07-24T09:25:24;24.60;99.90
16038;DHT22;8123;50.906;6.172;2022-07-24T09:28:00;24.60;99.90
16038;DHT22;8123;50.906;6.172;2022-07-24T09:30:41;24.70;99.90
16038;DHT22;8123;50.906;6.172;2022-07-24T09:33:13;24.80;99.90
16038;DHT22;8123;50.906;6.172;2022-07-24T09:35:42;24.80;99.90
16038;DHT22;8123;50.906;6.172;2022-07-24T09:38:10;24.80;99.90
16038;DHT22;8123;50.906;6.172;2022-07-24T09:40:41;24.90;99.90
16038;DHT22;8123;50.906;6.172;2022-07-24T09:46:07;25.00;99.90
16038;DHT22;8123;50.906;6.172;2022-07-24T09:48:38;25.00;99.90
16038;DHT22;8123;50.906;6.172;2022-07-24T09:51:05;25.00;99.90
16038;DHT22;8123;50.906;6.172;2022-07-24T09:53:35;25.20;99.90
16038;DHT22;8123;50.906;6.172;2022-07-24T09:56:10;25.30;99.90
16038;DHT22;8123;50.906;6.172;2022-07-24T09:58:51;25.30;99.90
16038;DHT22;8123;50.906;6.172;2022-07-24T10:01:21;25.30;99.90
16038;DHT22;8123;50.906;6.172;2022-07-24T10:03:49;25.20;99.90
16038;DHT22;8123;50.906;6.172;2022-07-24T10:06:18;25.20;99.90
16038;DHT22;8123;50.906;6.172;2022-07-24T10:08:46;25.30;99.90
16038;DHT22;8123;50.906;6.172;2022-07-24T10:11:12;25.40;99.90
16038;DHT22;8123;50.906;6.172;2022-07-24T10:13:39;25.30;99.90
16038;DHT22;8123;50.906;6.172;2022-07-24T10:19:02;25.40;99.90
16038;DHT22;8123;50.906;6.172;2022-07-24T10:21:30;25.50;99.90
16038;DHT22;8123;50.906;6.172;2022-07-24T10:29:06;25.60;99.90
16038;DHT22;8123;50.906;6.172;2022-07-24T10:31:40;25.70;99.90
16038;DHT22;8123;50.906;6.172;2022-07-24T10:34:27;25.70;99.90
16038;DHT22;8123;50.906;6.172;2022-07-24T10:42:16;25.90;99.90
16038;DHT22;8123;50.906;6.172;2022-07-24T10:44:41;25.90;99.90
16038;DHT22;8123;50.906;6.172;2022-07-24T10:47:11;26.00;99.90
16038;DHT22;8123;50.906;6.172;2022-07-24T10:49:48;26.00;99.90
16038;DHT22;8123;50.906;6.172;2022-07-24T10:52:27;26.00;99.90
16038;DHT22;8123;50.906;6.172;2022-07-24T10:55:22;26.00;99.90
16038;DHT22;8123;50.906;6.172;2022-07-24T11:00:36;26.10;99.90
16038;DHT22;8123;50.906;6.172;2022-07-24T11:03:07;26.10;99.90
16038;DHT22;8123;50.906;6.172;2022-07-24T11:05:35;26.20;99.90
16038;DHT22;8123;50.906;6.172;2022-07-24T11:10:51;26.20;99.90
16038;DHT22;8123;50.906;6.172;2022-07-24T11:19:23;26.30;99.90
16038;DHT22;8123;50.906;6.172;2022-07-24T11:21:43;26.40;99.90
16038;DHT22;8123;50.906;6.172;2022-07-24T11:29:13;26.40;99.90
16038;DHT22;8123;50.906;6.172;2022-07-24T11:31:40;26.30;99.90
16038;DHT22;8123;50.906;6.172;2022-07-24T11:34:08;26.30;99.90
16038;DHT22;8123;50.906;6.172;2022-07-24T11:36:35;26.40;99.90
16038;DHT22;8123;50.906;6.172;2022-07-24T11:39:04;26.50;99.90
16038;DHT22;8123;50.906;6.172;2022-07-24T11:41:51;26.60;99.90
16038;DHT22;8123;50.906;6.172;2022-07-24T11:44:32;26.60;99.90
16038;DHT22;8123;50.906;6.172;2022-07-24T11:46:59;26.60;99.90
16038;DHT22;8123;50.906;6.172;2022-07-24T11:49:28;26.70;99.90
16038;DHT22;8123;50.906;6.172;2022-07-24T11:51:54;26.70;99.90
16038;DHT22;8123;50.906;6.172;2022-07-24T11:54:27;26.60;99.90
16038;DHT22;8123;50.906;6.172;2022-07-24T11:56:55;26.70;99.90
16038;DHT22;8123;50.906;6.172;2022-07-24T12:01:51;26.70;99.90
16038;DHT22;8123;50.906;6.172;2022-07-24T12:04:20;26.90;99.90
16038;DHT22;8123;50.906;6.172;2022-07-24T12:06:47;26.90;99.90
16038;DHT22;8123;50.906;6.172;2022-07-24T12:09:12;26.90;99.90
16038;DHT22;8123;50.906;6.172;2022-07-24T12:11:38;26.90;99.90
16038;DHT22;8123;50.906;6.172;2022-07-24T12:14:17;27.10;99.90
16038;DHT22;8123;50.906;6.172;2022-07-24T12:16:44;27.10;99.90
16038;DHT22;8123;50.906;6.172;2022-07-24T12:19:23;27.20;99.90
16038;DHT22;8123;50.906;6.172;2022-07-24T12:21:52;27.50;99.90
16038;DHT22;8123;50.906;6.172;2022-07-24T12:24:19;27.10;99.90
16038;DHT22;8123;50.906;6.172;2022-07-24T12:26:56;27.10;99.90
16038;DHT22;8123;50.906;6.172;2022-07-24T12:29:23;27.10;99.90
16038;DHT22;8123;50.906;6.172;2022-07-24T12:31:52;27.10;99.90
16038;DHT22;8123;50.906;6.172;2022-07-24T12:34:18;27.10;99.90
16038;DHT22;8123;50.906;6.172;2022-07-24T12:36:43;27.20;99.90
16038;DHT22;8123;50.906;6.172;2022-07-24T12:39:11;27.20;99.90
16038;DHT22;8123;50.906;6.172;2022-07-24T12:41:45;27.30;99.90
16038;DHT22;8123;50.906;6.172;2022-07-24T12:44:14;27.20;99.90
16038;DHT22;8123;50.906;6.172;2022-07-24T12:46:41;27.40;99.90
16038;DHT22;8123;50.906;6.172;2022-07-24T12:49:09;27.40;99.90
16038;DHT22;8123;50.906;6.172;2022-07-24T12:51:54;27.40;99.90
16038;DHT22;8123;50.906;6.172;2022-07-24T12:56:48;27.30;99.90
16038;DHT22;8123;50.906;6.172;2022-07-24T12:59:22;27.50;99.90
16038;DHT22;8123;50.906;6.172;2022-07-24T13:01:54;27.60;99.90
16038;DHT22;8123;50.906;6.172;2022-07-24T13:04:22;27.60;99.90
16038;DHT22;8123;50.906;6.172;2022-07-24T13:06:50;27.70;99.90
16038;DHT22;8123;50.906;6.172;2022-07-24T13:09:17;27.70;99.90
16038;DHT22;8123;50.906;6.172;2022-07-24T13:11:45;27.80;99.90
16038;DHT22;8123;50.906;6.172;2022-07-24T13:14:12;27.80;99.90
16038;DHT22;8123;50.906;6.172;2022-07-24T13:16:40;27.90;99.90
16038;DHT22;8123;50.906;6.172;2022-07-24T13:19:06;27.80;99.90
16038;DHT22;8123;50.906;6.172;2022-07-24T13:21:33;27.80;99.90
16038;DHT22;8123;50.906;6.172;2022-07-24T13:23:59;27.70;99.90
16038;DHT22;8123;50.906;6.172;2022-07-24T13:26:25;27.70;99.90
16038;DHT22;8123;50.906;6.172;2022-07-24T13:28:51;27.90;99.90
16038;DHT22;8123;50.906;6.172;2022-07-24T13:31:17;28.00;99.90
16038;DHT22;8123;50.906;6.172;2022-07-24T13:33:49;28.00;99.90
16038;DHT22;8123;50.906;6.172;2022-07-24T13:36:16;27.90;99.90
16038;DHT22;8123;50.906;6.172;2022-07-24T13:38:42;27.90;99.90
16038;DHT22;8123;50.906;6.172;2022-07-24T13:41:08;28.00;99.90
16038;DHT22;8123;50.906;6.172;2022-07-24T13:43:34;28.00;99.90
16038;DHT22;8123;50.906;6.172;2022-07-24T13:46:00;28.00;99.90
16038;DHT22;8123;50.906;6.172;2022-07-24T13:48:25;28.10;99.90
16038;DHT22;8123;50.906;6.172;2022-07-24T13:50:51;28.20;99.90
16038;DHT22;8123;50.906;6.172;2022-07-24T13:53:17;28.20;99.90
16038;DHT22;8123;50.906;6.172;2022-07-24T13:55:42;28.00;99.90
16038;DHT22;8123;50.906;6.172;2022-07-24T13:58:08;28.00;99.90
16038;DHT22;8123;50.906;6.172;2022-07-24T14:00:34;28.20;99.90
16038;DHT22;8123;50.906;6.172;2022-07-24T14:03:00;28.30;99.90
16038;DHT22;8123;50.906;6.172;2022-07-24T14:05:26;28.30;99.90
16038;DHT22;8123;50.906;6.172;2022-07-24T14:07:52;28.30;99.90
16038;DHT22;8123;50.906;6.172;2022-07-24T14:10:19;28.30;99.90
16038;DHT22;8123;50.906;6.172;2022-07-24T14:12:45;28.20;99.90
16038;DHT22;8123;50.906;6.172;2022-07-24T14:15:11;28.30;99.90
16038;DHT22;8123;50.906;6.172;2022-07-24T14:17:41;28.20;99.90
16038;DHT22;8123;50.906;6.172;2022-07-24T14:20:08;28.30;99.90
16038;DHT22;8123;50.906;6.172;2022-07-24T14:22:35;28.40;99.90
16038;DHT22;8123;50.906;6.172;2022-07-24T14:25:02;28.40;99.90
16038;DHT22;8123;50.906;6.172;2022-07-24T14:27:28;28.50;99.90
16038;DHT22;8123;50.906;6.172;2022-07-24T14:29:54;28.50;99.90
16038;DHT22;8123;50.906;6.172;2022-07-24T14:32:20;28.40;99.90
16038;DHT22;8123;50.906;6.172;2022-07-24T14:34:45;28.40;99.90
16038;DHT22;8123;50.906;6.172;2022-07-24T14:37:11;28.50;99.90
16038;DHT22;8123;50.906;6.172;2022-07-24T14:39:37;28.50;99.90
16038;DHT22;8123;50.906;6.172;2022-07-24T14:42:02;28.50;99.90
16038;DHT22;8123;50.906;6.172;2022-07-24T14:44:28;28.50;99.90
16038;DHT22;8123;50.906;6.172;2022-07-24T14:46:54;28.50;99.90
16038;DHT22;8123;50.906;6.172;2022-07-24T14:49:20;28.50;99.90
16038;DHT22;8123;50.906;6.172;2022-07-24T14:51:45;28.70;99.90
16038;DHT22;8123;50.906;6.172;2022-07-24T14:54:11;28.70;99.90
16038;DHT22;8123;50.906;6.172;2022-07-24T14:56:37;28.70;99.90
16038;DHT22;8123;50.906;6.172;2022-07-24T14:59:03;28.60;99.90
16038;DHT22;8123;50.906;6.172;2022-07-24T15:01:30;28.60;99.90
16038;DHT22;8123;50.906;6.172;2022-07-24T15:03:55;28.60;99.90
16038;DHT22;8123;50.906;6.172;2022-07-24T15:06:21;28.50;99.90
16038;DHT22;8123;50.906;6.172;2022-07-24T15:08:47;28.70;99.90
16038;DHT22;8123;50.906;6.172;2022-07-24T15:11:13;29.00;99.90
16038;DHT22;8123;50.906;6.172;2022-07-24T15:13:38;28.90;99.90
16038;DHT22;8123;50.906;6.172;2022-07-24T15:16:06;29.00;99.90
16038;DHT22;8123;50.906;6.172;2022-07-24T15:18:33;29.10;99.90
16038;DHT22;8123;50.906;6.172;2022-07-24T15:20:59;29.30;99.90
16038;DHT22;8123;50.906;6.172;2022-07-24T15:23:26;29.50;99.90
16038;DHT22;8123;50.906;6.172;2022-07-24T15:25:51;29.50;99.90
16038;DHT22;8123;50.906;6.172;2022-07-24T15:28:18;29.60;99.90
16038;DHT22;8123;50.906;6.172;2022-07-24T15:30:44;29.60;99.90
16038;DHT22;8123;50.906;6.172;2022-07-24T15:33:10;29.70;99.90
16038;DHT22;8123;50.906;6.172;2022-07-24T15:35:36;29.60;99.90
16038;DHT22;8123;50.906;6.172;2022-07-24T15:38:01;29.40;99.90
16038;DHT22;8123;50.906;6.172;2022-07-24T15:40:27;29.40;99.90
16038;DHT22;8123;50.906;6.172;2022-07-24T15:42:54;29.70;99.90
16038;DHT22;8123;50.906;6.172;2022-07-24T15:45:20;29.90;99.90
16038;DHT22;8123;50.906;6.172;2022-07-24T15:47:46;30.10;99.90
16038;DHT22;8123;50.906;6.172;2022-07-24T15:50:12;30.20;99.90
16038;DHT22;8123;50.906;6.172;2022-07-24T15:52:39;30.40;99.90
16038;DHT22;8123;50.906;6.172;2022-07-24T15:55:05;30.50;99.90
16038;DHT22;8123;50.906;6.172;2022-07-24T15:57:31;30.70;99.90
16038;DHT22;8123;50.906;6.172;2022-07-24T15:59:57;31.10;99.90
16038;DHT22;8123;50.906;6.172;2022-07-24T16:02:23;31.30;99.90
16038;DHT22;8123;50.906;6.172;2022-07-24T16:04:49;31.50;99.90
16038;DHT22;8123;50.906;6.172;2022-07-24T16:07:15;31.50;99.90
16038;DHT22;8123;50.906;6.172;2022-07-24T16:09:42;31.70;99.90
16038;DHT22;8123;50.906;6.172;2022-07-24T16:12:08;31.90;99.90
16038;DHT22;8123;50.906;6.172;2022-07-24T16:14:34;32.10;99.90
16038;DHT22;8123;50.906;6.172;2022-07-24T16:17:00;32.30;99.90
16038;DHT22;8123;50.906;6.172;2022-07-24T16:19:26;32.50;99.90
16038;DHT22;8123;50.906;6.172;2022-07-24T16:21:52;32.40;99.90